sensor_id;sensor_type;location;lat;lon;timestamp;P1;durP1;ratioP1;P2;durP2;ratioP2
40074;SDS011;26529;51.530;11.754;2022-08-14T00:00:19;3.63;;;3.13;;
40074;SDS011;26529;51.530;11.754;2022-08-14T00:02:45;5.60;;;4.25;;
40074;SDS011;26529;51.530;11.754;2022-08-14T00:05:12;4.75;;;3.42;;
40074;SDS011;26529;51.530;11.754;2022-08-14T00:07:40;4.40;;;4.00;;
40074;SDS011;26529;51.530;11.754;2022-08-14T00:10:10;4.30;;;3.90;;
40074;SDS011;26529;51.530;11.754;2022-08-14T00:12:38;4.95;;;4.22;;
40074;SDS011;26529;51.530;11.754;2022-08-14T00:17:52;3.95;;;3.65;;
40074;SDS011;26529;51.530;11.754;2022-08-14T00:20:20;4.15;;;3.75;;
40074;SDS011;26529;51.530;11.754;2022-08-14T00:22:49;3.80;;;3.50;;
40074;SDS011;26529;51.530;11.754;2022-08-14T00:25:14;3.50;;;3.20;;
40074;SDS011;26529;51.530;11.754;2022-08-14T00:27:40;4.30;;;3.90;;
40074;SDS011;26529;51.530;11.754;2022-08-14T00:30:06;4.43;;;4.03;;
40074;SDS011;26529;51.530;11.754;2022-08-14T00:32:33;4.47;;;4.07;;
40074;SDS011;26529;51.530;11.754;2022-08-14T00:34:59;5.13;;;4.07;;
40074;SDS011;26529;51.530;11.754;2022-08-14T00:37:26;4.20;;;3.90;;
40074;SDS011;26529;51.530;11.754;2022-08-14T00:39:54;4.22;;;3.83;;
40074;SDS011;26529;51.530;11.754;2022-08-14T00:42:21;5.03;;;3.95;;
40074;SDS011;26529;51.530;11.754;2022-08-14T00:44:47;5.38;;;3.85;;
40074;SDS011;26529;51.530;11.754;2022-08-14T00:47:13;4.30;;;3.60;;
40074;SDS011;26529;51.530;11.754;2022-08-14T00:49:39;4.20;;;3.45;;
40074;SDS011;26529;51.530;11.754;2022-08-14T00:52:05;5.47;;;4.28;;
40074;SDS011;26529;51.530;11.754;2022-08-14T00:54:31;5.53;;;3.97;;
40074;SDS011;26529;51.530;11.754;2022-08-14T00:56:57;4.22;;;3.92;;
40074;SDS011;26529;51.530;11.754;2022-08-14T00:59:24;5.90;;;4.38;;
40074;SDS011;26529;51.530;11.754;2022-08-14T01:01:53;5.13;;;4.00;;
40074;SDS011;26529;51.530;11.754;2022-08-14T01:04:22;4.03;;;3.63;;
40074;SDS011;26529;51.530;11.754;2022-08-14T01:06:48;4.40;;;3.97;;
40074;SDS011;26529;51.530;11.754;2022-08-14T01:09:17;3.67;;;3.38;;
40074;SDS011;26529;51.530;11.754;2022-08-14T01:11:50;4.30;;;3.90;;
40074;SDS011;26529;51.530;11.754;2022-08-14T01:14:17;4.53;;;4.10;;
40074;SDS011;26529;51.530;11.754;2022-08-14T01:16:44;3.97;;;3.67;;
40074;SDS011;26529;51.530;11.754;2022-08-14T01:19:11;4.25;;;3.85;;
40074;SDS011;26529;51.530;11.754;2022-08-14T01:22:00;3.83;;;3.53;;
40074;SDS011;26529;51.530;11.754;2022-08-14T01:24:25;4.00;;;3.70;;
40074;SDS011;26529;51.530;11.754;2022-08-14T01:26:51;4.25;;;3.85;;
40074;SDS011;26529;51.530;11.754;2022-08-14T01:29:17;3.83;;;3.53;;
40074;SDS011;26529;51.530;11.754;2022-08-14T01:31:44;4.05;;;3.70;;
40074;SDS011;26529;51.530;11.754;2022-08-14T01:34:12;3.85;;;3.45;;
40074;SDS011;26529;51.530;11.754;2022-08-14T01:36:38;4.38;;;3.72;;
40074;SDS011;26529;51.530;11.754;2022-08-14T01:39:08;5.15;;;3.95;;
40074;SDS011;26529;51.530;11.754;2022-08-14T01:41:36;4.18;;;3.88;;
40074;SDS011;26529;51.530;11.754;2022-08-14T01:44:06;4.82;;;3.95;;
40074;SDS011;26529;51.530;11.754;2022-08-14T01:46:37;4.28;;;3.88;;
40074;SDS011;26529;51.530;11.754;2022-08-14T01:49:05;4.28;;;3.75;;
40074;SDS011;26529;51.530;11.754;2022-08-14T01:51:32;3.95;;;3.65;;
40074;SDS011;26529;51.530;11.754;2022-08-14T01:54:00;4.28;;;3.80;;
40074;SDS011;26529;51.530;11.754;2022-08-14T01:56:31;3.88;;;3.58;;
40074;SDS011;26529;51.530;11.754;2022-08-14T01:59:04;5.45;;;4.03;;
40074;SDS011;26529;51.530;11.754;2022-08-14T02:01:33;4.60;;;4.07;;
40074;SDS011;26529;51.530;11.754;2022-08-14T02:04:00;4.13;;;3.72;;
40074;SDS011;26529;51.530;11.754;2022-08-14T02:06:28;4.80;;;3.53;;
40074;SDS011;26529;51.530;11.754;2022-08-14T02:08:54;4.28;;;3.95;;
40074;SDS011;26529;51.530;11.754;2022-08-14T02:11:19;4.10;;;3.80;;
40074;SDS011;26529;51.530;11.754;2022-08-14T02:16:24;5.43;;;4.10;;
40074;SDS011;26529;51.530;11.754;2022-08-14T02:18:57;5.03;;;4.38;;
40074;SDS011;26529;51.530;11.754;2022-08-14T02:21:25;4.05;;;3.67;;
40074;SDS011;26529;51.530;11.754;2022-08-14T02:23:52;5.10;;;3.90;;
40074;SDS011;26529;51.530;11.754;2022-08-14T02:26:24;3.80;;;3.50;;
40074;SDS011;26529;51.530;11.754;2022-08-14T02:28:52;4.28;;;3.88;;
40074;SDS011;26529;51.530;11.754;2022-08-14T02:31:20;4.95;;;3.58;;
40074;SDS011;26529;51.530;11.754;2022-08-14T02:33:46;4.07;;;3.78;;
40074;SDS011;26529;51.530;11.754;2022-08-14T02:36:12;6.63;;;4.00;;
40074;SDS011;26529;51.530;11.754;2022-08-14T02:38:38;4.00;;;3.70;;
40074;SDS011;26529;51.530;11.754;2022-08-14T02:41:07;5.05;;;4.55;;
40074;SDS011;26529;51.530;11.754;2022-08-14T02:43:34;4.13;;;3.72;;
40074;SDS011;26529;51.530;11.754;2022-08-14T02:46:00;3.58;;;3.28;;
40074;SDS011;26529;51.530;11.754;2022-08-14T02:48:27;6.10;;;4.03;;
40074;SDS011;26529;51.530;11.754;2022-08-14T02:51:00;4.00;;;3.70;;
40074;SDS011;26529;51.530;11.754;2022-08-14T02:53:31;4.05;;;3.75;;
40074;SDS011;26529;51.530;11.754;2022-08-14T02:56:00;4.05;;;3.65;;
40074;SDS011;26529;51.530;11.754;2022-08-14T02:58:26;4.30;;;3.92;;
40074;SDS011;26529;51.530;11.754;2022-08-14T03:00:54;3.60;;;3.30;;
40074;SDS011;26529;51.530;11.754;2022-08-14T03:03:19;3.75;;;3.33;;
40074;SDS011;26529;51.530;11.754;2022-08-14T03:05:48;4.75;;;3.97;;
40074;SDS011;26529;51.530;11.754;2022-08-14T03:08:15;3.75;;;3.45;;
40074;SDS011;26529;51.530;11.754;2022-08-14T03:10:42;4.78;;;4.38;;
40074;SDS011;26529;51.530;11.754;2022-08-14T03:13:07;4.28;;;3.78;;
40074;SDS011;26529;51.530;11.754;2022-08-14T03:15:34;3.95;;;3.65;;
40074;SDS011;26529;51.530;11.754;2022-08-14T03:18:08;4.07;;;3.67;;
40074;SDS011;26529;51.530;11.754;2022-08-14T03:20:35;7.95;;;4.40;;
40074;SDS011;26529;51.530;11.754;2022-08-14T03:23:00;4.68;;;4.20;;
40074;SDS011;26529;51.530;11.754;2022-08-14T03:25:26;4.18;;;3.88;;
40074;SDS011;26529;51.530;11.754;2022-08-14T03:27:55;4.97;;;4.30;;
40074;SDS011;26529;51.530;11.754;2022-08-14T03:30:21;4.68;;;4.03;;
40074;SDS011;26529;51.530;11.754;2022-08-14T03:32:46;4.90;;;4.28;;
40074;SDS011;26529;51.530;11.754;2022-08-14T03:35:11;3.90;;;3.60;;
40074;SDS011;26529;51.530;11.754;2022-08-14T03:37:37;4.53;;;4.13;;
40074;SDS011;26529;51.530;11.754;2022-08-14T03:40:03;4.30;;;3.90;;
40074;SDS011;26529;51.530;11.754;2022-08-14T03:42:30;4.50;;;4.10;;
40074;SDS011;26529;51.530;11.754;2022-08-14T03:44:56;4.18;;;3.80;;
40074;SDS011;26529;51.530;11.754;2022-08-14T03:47:23;4.50;;;4.03;;
40074;SDS011;26529;51.530;11.754;2022-08-14T03:49:49;6.20;;;4.10;;
40074;SDS011;26529;51.530;11.754;2022-08-14T03:52:14;4.43;;;4.03;;
40074;SDS011;26529;51.530;11.754;2022-08-14T03:54:40;4.15;;;3.75;;
40074;SDS011;26529;51.530;11.754;2022-08-14T03:57:06;4.10;;;3.70;;
40074;SDS011;26529;51.530;11.754;2022-08-14T03:59:32;4.55;;;4.07;;
40074;SDS011;26529;51.530;11.754;2022-08-14T04:01:58;4.53;;;4.00;;
40074;SDS011;26529;51.530;11.754;2022-08-14T04:04:24;5.43;;;4.28;;
40074;SDS011;26529;51.530;11.754;2022-08-14T04:06:50;3.80;;;3.50;;
40074;SDS011;26529;51.530;11.754;2022-08-14T04:09:16;4.30;;;3.90;;
40074;SDS011;26529;51.530;11.754;2022-08-14T04:11:42;4.40;;;4.00;;
40074;SDS011;26529;51.530;11.754;2022-08-14T04:14:09;4.07;;;3.78;;
40074;SDS011;26529;51.530;11.754;2022-08-14T04:16:34;4.63;;;4.22;;
40074;SDS011;26529;51.530;11.754;2022-08-14T04:19:00;4.60;;;4.20;;
40074;SDS011;26529;51.530;11.754;2022-08-14T04:21:28;5.80;;;4.60;;
40074;SDS011;26529;51.530;11.754;2022-08-14T04:23:55;4.40;;;4.00;;
40074;SDS011;26529;51.530;11.754;2022-08-14T04:26:23;4.50;;;4.07;;
40074;SDS011;26529;51.530;11.754;2022-08-14T04:28:51;5.22;;;3.88;;
40074;SDS011;26529;51.530;11.754;2022-08-14T04:31:18;5.07;;;3.97;;
40074;SDS011;26529;51.530;11.754;2022-08-14T04:33:45;4.95;;;4.45;;
40074;SDS011;26529;51.530;11.754;2022-08-14T04:36:12;5.35;;;4.35;;
40074;SDS011;26529;51.530;11.754;2022-08-14T04:38:37;4.35;;;4.03;;
40074;SDS011;26529;51.530;11.754;2022-08-14T04:41:21;5.28;;;4.30;;
40074;SDS011;26529;51.530;11.754;2022-08-14T04:44:05;4.72;;;4.32;;
40074;SDS011;26529;51.530;11.754;2022-08-14T04:46:32;4.63;;;4.05;;
40074;SDS011;26529;51.530;11.754;2022-08-14T04:48:58;4.53;;;4.13;;
40074;SDS011;26529;51.530;11.754;2022-08-14T04:51:24;5.30;;;4.80;;
40074;SDS011;26529;51.530;11.754;2022-08-14T04:53:52;4.35;;;4.03;;
40074;SDS011;26529;51.530;11.754;2022-08-14T04:56:22;4.60;;;4.20;;
40074;SDS011;26529;51.530;11.754;2022-08-14T04:58:54;4.93;;;4.47;;
40074;SDS011;26529;51.530;11.754;2022-08-14T05:01:26;4.03;;;3.63;;
40074;SDS011;26529;51.530;11.754;2022-08-14T05:03:52;5.05;;;4.30;;
40074;SDS011;26529;51.530;11.754;2022-08-14T05:06:19;5.80;;;4.53;;
40074;SDS011;26529;51.530;11.754;2022-08-14T05:08:46;5.45;;;4.05;;
40074;SDS011;26529;51.530;11.754;2022-08-14T05:11:12;5.05;;;4.55;;
40074;SDS011;26529;51.530;11.754;2022-08-14T05:13:37;4.60;;;4.22;;
40074;SDS011;26529;51.530;11.754;2022-08-14T05:16:03;4.90;;;4.45;;
40074;SDS011;26529;51.530;11.754;2022-08-14T05:18:31;4.85;;;4.45;;
40074;SDS011;26529;51.530;11.754;2022-08-14T05:21:03;5.35;;;3.92;;
40074;SDS011;26529;51.530;11.754;2022-08-14T05:23:31;5.43;;;4.47;;
40074;SDS011;26529;51.530;11.754;2022-08-14T05:25:59;5.35;;;4.47;;
40074;SDS011;26529;51.530;11.754;2022-08-14T05:28:37;4.80;;;4.40;;
40074;SDS011;26529;51.530;11.754;2022-08-14T05:31:06;4.93;;;4.47;;
40074;SDS011;26529;51.530;11.754;2022-08-14T05:33:32;4.63;;;4.22;;
40074;SDS011;26529;51.530;11.754;2022-08-14T05:35:59;5.10;;;3.53;;
40074;SDS011;26529;51.530;11.754;2022-08-14T05:38:33;6.32;;;4.40;;
40074;SDS011;26529;51.530;11.754;2022-08-14T05:41:01;4.95;;;4.53;;
40074;SDS011;26529;51.530;11.754;2022-08-14T05:43:28;4.32;;;3.70;;
40074;SDS011;26529;51.530;11.754;2022-08-14T05:45:55;5.15;;;4.60;;
40074;SDS011;26529;51.530;11.754;2022-08-14T05:48:22;6.00;;;4.50;;
40074;SDS011;26529;51.530;11.754;2022-08-14T05:50:49;4.45;;;4.13;;
40074;SDS011;26529;51.530;11.754;2022-08-14T05:53:15;4.03;;;3.63;;
40074;SDS011;26529;51.530;11.754;2022-08-14T05:55:41;4.97;;;4.22;;
40074;SDS011;26529;51.530;11.754;2022-08-14T05:58:07;4.38;;;3.97;;
40074;SDS011;26529;51.530;11.754;2022-08-14T06:00:37;4.88;;;4.38;;
40074;SDS011;26529;51.530;11.754;2022-08-14T06:03:05;6.85;;;4.05;;
40074;SDS011;26529;51.530;11.754;2022-08-14T06:05:40;5.45;;;3.75;;
40074;SDS011;26529;51.530;11.754;2022-08-14T06:08:14;7.63;;;3.97;;
40074;SDS011;26529;51.530;11.754;2022-08-14T06:10:40;5.38;;;4.88;;
40074;SDS011;26529;51.530;11.754;2022-08-14T06:13:06;7.55;;;4.35;;
40074;SDS011;26529;51.530;11.754;2022-08-14T06:15:32;4.55;;;4.13;;
40074;SDS011;26529;51.530;11.754;2022-08-14T06:17:57;5.15;;;4.53;;
40074;SDS011;26529;51.530;11.754;2022-08-14T06:20:23;5.72;;;3.90;;
40074;SDS011;26529;51.530;11.754;2022-08-14T06:22:49;6.40;;;4.50;;
40074;SDS011;26529;51.530;11.754;2022-08-14T06:25:15;4.63;;;3.95;;
40074;SDS011;26529;51.530;11.754;2022-08-14T06:27:44;6.40;;;4.60;;
40074;SDS011;26529;51.530;11.754;2022-08-14T06:30:16;6.05;;;4.30;;
40074;SDS011;26529;51.530;11.754;2022-08-14T06:32:43;4.97;;;4.05;;
40074;SDS011;26529;51.530;11.754;2022-08-14T06:35:10;4.28;;;3.80;;
40074;SDS011;26529;51.530;11.754;2022-08-14T06:37:46;6.07;;;4.20;;
40074;SDS011;26529;51.530;11.754;2022-08-14T06:40:35;5.65;;;4.43;;
40074;SDS011;26529;51.530;11.754;2022-08-14T06:43:01;5.68;;;4.25;;
40074;SDS011;26529;51.530;11.754;2022-08-14T06:45:33;4.53;;;4.03;;
40074;SDS011;26529;51.530;11.754;2022-08-14T06:47:59;7.35;;;4.68;;
40074;SDS011;26529;51.530;11.754;2022-08-14T06:50:26;4.93;;;3.85;;
40074;SDS011;26529;51.530;11.754;2022-08-14T06:52:52;6.32;;;4.85;;
40074;SDS011;26529;51.530;11.754;2022-08-14T06:55:18;6.47;;;4.28;;
40074;SDS011;26529;51.530;11.754;2022-08-14T06:57:45;4.60;;;4.05;;
40074;SDS011;26529;51.530;11.754;2022-08-14T07:00:14;4.60;;;4.07;;
40074;SDS011;26529;51.530;11.754;2022-08-14T07:02:40;5.65;;;3.97;;
40074;SDS011;26529;51.530;11.754;2022-08-14T07:05:25;5.93;;;4.40;;
40074;SDS011;26529;51.530;11.754;2022-08-14T07:08:16;8.38;;;4.85;;
40074;SDS011;26529;51.530;11.754;2022-08-14T07:10:51;6.88;;;4.15;;
40074;SDS011;26529;51.530;11.754;2022-08-14T07:13:21;5.75;;;3.83;;
40074;SDS011;26529;51.530;11.754;2022-08-14T07:15:47;5.47;;;3.97;;
40074;SDS011;26529;51.530;11.754;2022-08-14T07:18:18;6.78;;;4.88;;
40074;SDS011;26529;51.530;11.754;2022-08-14T07:20:45;5.47;;;4.53;;
40074;SDS011;26529;51.530;11.754;2022-08-14T07:23:10;6.88;;;4.50;;
40074;SDS011;26529;51.530;11.754;2022-08-14T07:25:36;5.40;;;4.35;;
40074;SDS011;26529;51.530;11.754;2022-08-14T07:28:07;4.63;;;3.97;;
40074;SDS011;26529;51.530;11.754;2022-08-14T07:30:37;5.65;;;4.25;;
40074;SDS011;26529;51.530;11.754;2022-08-14T07:33:04;6.40;;;4.15;;
40074;SDS011;26529;51.530;11.754;2022-08-14T07:35:30;6.75;;;4.38;;
40074;SDS011;26529;51.530;11.754;2022-08-14T07:37:56;7.45;;;4.15;;
40074;SDS011;26529;51.530;11.754;2022-08-14T07:40:21;4.57;;;4.18;;
40074;SDS011;26529;51.530;11.754;2022-08-14T07:42:47;4.95;;;4.45;;
40074;SDS011;26529;51.530;11.754;2022-08-14T07:45:12;4.63;;;4.22;;
40074;SDS011;26529;51.530;11.754;2022-08-14T07:47:39;5.30;;;4.05;;
40074;SDS011;26529;51.530;11.754;2022-08-14T07:50:14;4.97;;;3.85;;
40074;SDS011;26529;51.530;11.754;2022-08-14T07:52:45;5.00;;;4.53;;
40074;SDS011;26529;51.530;11.754;2022-08-14T07:55:13;5.00;;;4.55;;
40074;SDS011;26529;51.530;11.754;2022-08-14T07:57:42;4.80;;;4.40;;
40074;SDS011;26529;51.530;11.754;2022-08-14T08:00:11;4.47;;;3.97;;
40074;SDS011;26529;51.530;11.754;2022-08-14T08:02:40;5.10;;;4.32;;
40074;SDS011;26529;51.530;11.754;2022-08-14T08:05:06;6.95;;;4.40;;
40074;SDS011;26529;51.530;11.754;2022-08-14T08:07:33;4.25;;;3.85;;
40074;SDS011;26529;51.530;11.754;2022-08-14T08:10:02;5.30;;;4.07;;
40074;SDS011;26529;51.530;11.754;2022-08-14T08:12:50;5.07;;;4.30;;
40074;SDS011;26529;51.530;11.754;2022-08-14T08:15:17;5.70;;;4.63;;
40074;SDS011;26529;51.530;11.754;2022-08-14T08:17:43;6.80;;;4.53;;
40074;SDS011;26529;51.530;11.754;2022-08-14T08:20:14;4.38;;;3.97;;
40074;SDS011;26529;51.530;11.754;2022-08-14T08:22:41;6.03;;;4.18;;
40074;SDS011;26529;51.530;11.754;2022-08-14T08:25:07;4.43;;;4.03;;
40074;SDS011;26529;51.530;11.754;2022-08-14T08:27:33;6.63;;;5.05;;
40074;SDS011;26529;51.530;11.754;2022-08-14T08:30:06;6.13;;;4.93;;
40074;SDS011;26529;51.530;11.754;2022-08-14T08:32:40;3.95;;;3.65;;
40074;SDS011;26529;51.530;11.754;2022-08-14T08:35:22;8.75;;;4.40;;
40074;SDS011;26529;51.530;11.754;2022-08-14T08:37:50;5.63;;;4.00;;
40074;SDS011;26529;51.530;11.754;2022-08-14T08:40:24;5.43;;;3.40;;
40074;SDS011;26529;51.530;11.754;2022-08-14T08:42:55;4.35;;;3.95;;
40074;SDS011;26529;51.530;11.754;2022-08-14T08:45:21;5.43;;;4.40;;
40074;SDS011;26529;51.530;11.754;2022-08-14T08:47:48;4.13;;;3.72;;
40074;SDS011;26529;51.530;11.754;2022-08-14T08:50:18;6.22;;;3.60;;
40074;SDS011;26529;51.530;11.754;2022-08-14T08:52:55;4.90;;;4.50;;
40074;SDS011;26529;51.530;11.754;2022-08-14T08:55:23;6.50;;;5.53;;
40074;SDS011;26529;51.530;11.754;2022-08-14T08:58:03;5.55;;;4.82;;
40074;SDS011;26529;51.530;11.754;2022-08-14T09:00:31;5.40;;;4.90;;
40074;SDS011;26529;51.530;11.754;2022-08-14T09:05:27;6.00;;;5.05;;
40074;SDS011;26529;51.530;11.754;2022-08-14T09:07:54;5.60;;;5.10;;
40074;SDS011;26529;51.530;11.754;2022-08-14T09:10:33;7.15;;;5.03;;
40074;SDS011;26529;51.530;11.754;2022-08-14T09:12:59;11.20;;;5.65;;
40074;SDS011;26529;51.530;11.754;2022-08-14T09:15:26;7.35;;;5.07;;
40074;SDS011;26529;51.530;11.754;2022-08-14T09:17:52;8.65;;;6.00;;
40074;SDS011;26529;51.530;11.754;2022-08-14T09:20:18;7.22;;;5.28;;
40074;SDS011;26529;51.530;11.754;2022-08-14T09:22:43;5.88;;;4.95;;
40074;SDS011;26529;51.530;11.754;2022-08-14T09:25:09;6.90;;;5.15;;
40074;SDS011;26529;51.530;11.754;2022-08-14T09:27:36;6.40;;;5.28;;
40074;SDS011;26529;51.530;11.754;2022-08-14T09:30:03;10.32;;;6.15;;
40074;SDS011;26529;51.530;11.754;2022-08-14T09:32:35;6.07;;;5.45;;
40074;SDS011;26529;51.530;11.754;2022-08-14T09:35:16;8.20;;;5.20;;
40074;SDS011;26529;51.530;11.754;2022-08-14T09:38:05;6.13;;;5.18;;
40074;SDS011;26529;51.530;11.754;2022-08-14T09:40:45;6.10;;;5.40;;
40074;SDS011;26529;51.530;11.754;2022-08-14T09:43:27;6.43;;;5.82;;
40074;SDS011;26529;51.530;11.754;2022-08-14T09:46:12;7.13;;;6.03;;
40074;SDS011;26529;51.530;11.754;2022-08-14T09:48:40;5.80;;;5.30;;
40074;SDS011;26529;51.530;11.754;2022-08-14T09:51:05;5.30;;;4.78;;
40074;SDS011;26529;51.530;11.754;2022-08-14T09:53:33;6.65;;;6.00;;
40074;SDS011;26529;51.530;11.754;2022-08-14T09:56:11;6.88;;;5.35;;
40074;SDS011;26529;51.530;11.754;2022-08-14T09:58:41;6.05;;;5.45;;
40074;SDS011;26529;51.530;11.754;2022-08-14T10:01:09;6.00;;;5.50;;
40074;SDS011;26529;51.530;11.754;2022-08-14T10:03:46;7.10;;;5.82;;
40074;SDS011;26529;51.530;11.754;2022-08-14T10:06:20;7.10;;;5.43;;
40074;SDS011;26529;51.530;11.754;2022-08-14T10:08:52;7.37;;;5.17;;
40074;SDS011;26529;51.530;11.754;2022-08-14T10:11:26;5.90;;;5.30;;
40074;SDS011;26529;51.530;11.754;2022-08-14T10:14:10;6.25;;;5.68;;
40074;SDS011;26529;51.530;11.754;2022-08-14T10:16:42;6.20;;;5.55;;
40074;SDS011;26529;51.530;11.754;2022-08-14T10:19:10;5.85;;;5.28;;
40074;SDS011;26529;51.530;11.754;2022-08-14T10:21:40;6.97;;;5.45;;
40074;SDS011;26529;51.530;11.754;2022-08-14T10:24:10;6.55;;;5.97;;
40074;SDS011;26529;51.530;11.754;2022-08-14T10:27:33;6.57;;;5.97;;
40074;SDS011;26529;51.530;11.754;2022-08-14T10:29:47;6.28;;;5.68;;
40074;SDS011;26529;51.530;11.754;2022-08-14T10:32:14;6.07;;;5.43;;
40074;SDS011;26529;51.530;11.754;2022-08-14T10:34:40;5.97;;;5.40;;
40074;SDS011;26529;51.530;11.754;2022-08-14T10:37:10;6.18;;;5.05;;
40074;SDS011;26529;51.530;11.754;2022-08-14T10:39:40;5.47;;;4.97;;
40074;SDS011;26529;51.530;11.754;2022-08-14T10:42:10;5.60;;;5.10;;
40074;SDS011;26529;51.530;11.754;2022-08-14T10:44:38;6.63;;;5.30;;
40074;SDS011;26529;51.530;11.754;2022-08-14T10:47:10;6.20;;;5.60;;
40074;SDS011;26529;51.530;11.754;2022-08-14T10:49:38;5.50;;;5.00;;
40074;SDS011;26529;51.530;11.754;2022-08-14T10:52:22;6.03;;;5.43;;
40074;SDS011;26529;51.530;11.754;2022-08-14T10:54:49;5.60;;;5.10;;
40074;SDS011;26529;51.530;11.754;2022-08-14T10:57:17;5.65;;;5.15;;
40074;SDS011;26529;51.530;11.754;2022-08-14T10:59:56;6.38;;;5.40;;
40074;SDS011;26529;51.530;11.754;2022-08-14T11:02:30;5.82;;;5.32;;
40074;SDS011;26529;51.530;11.754;2022-08-14T11:07:28;8.95;;;5.90;;
40074;SDS011;26529;51.530;11.754;2022-08-14T11:09:56;6.20;;;5.60;;
40074;SDS011;26529;51.530;11.754;2022-08-14T11:12:25;5.88;;;5.35;;
40074;SDS011;26529;51.530;11.754;2022-08-14T11:14:55;5.63;;;5.13;;
40074;SDS011;26529;51.530;11.754;2022-08-14T11:17:25;5.30;;;4.80;;
40074;SDS011;26529;51.530;11.754;2022-08-14T11:19:54;5.22;;;4.72;;
40074;SDS011;26529;51.530;11.754;2022-08-14T11:22:23;4.97;;;4.57;;
40074;SDS011;26529;51.530;11.754;2022-08-14T11:24:52;5.38;;;4.88;;
40074;SDS011;26529;51.530;11.754;2022-08-14T11:27:20;4.97;;;4.47;;
40074;SDS011;26529;51.530;11.754;2022-08-14T11:29:49;5.40;;;4.90;;
40074;SDS011;26529;51.530;11.754;2022-08-14T11:32:15;5.07;;;4.68;;
40074;SDS011;26529;51.530;11.754;2022-08-14T11:34:44;4.97;;;4.57;;
40074;SDS011;26529;51.530;11.754;2022-08-14T11:37:11;5.05;;;4.65;;
40074;SDS011;26529;51.530;11.754;2022-08-14T11:39:37;5.32;;;4.82;;
40074;SDS011;26529;51.530;11.754;2022-08-14T11:42:03;5.85;;;3.78;;
40074;SDS011;26529;51.530;11.754;2022-08-14T11:44:30;4.88;;;4.45;;
40074;SDS011;26529;51.530;11.754;2022-08-14T11:46:55;5.47;;;4.38;;
40074;SDS011;26529;51.530;11.754;2022-08-14T11:49:24;4.38;;;4.03;;
40074;SDS011;26529;51.530;11.754;2022-08-14T11:51:57;4.75;;;4.22;;
40074;SDS011;26529;51.530;11.754;2022-08-14T11:54:23;5.18;;;3.97;;
40074;SDS011;26529;51.530;11.754;2022-08-14T11:56:49;5.43;;;4.40;;
40074;SDS011;26529;51.530;11.754;2022-08-14T11:59:16;4.78;;;4.35;;
40074;SDS011;26529;51.530;11.754;2022-08-14T12:01:43;4.38;;;4.07;;
40074;SDS011;26529;51.530;11.754;2022-08-14T12:04:12;4.57;;;4.20;;
40074;SDS011;26529;51.530;11.754;2022-08-14T12:06:43;4.20;;;3.80;;
40074;SDS011;26529;51.530;11.754;2022-08-14T12:11:54;4.65;;;4.25;;
40074;SDS011;26529;51.530;11.754;2022-08-14T12:14:20;4.13;;;3.83;;
40074;SDS011;26529;51.530;11.754;2022-08-14T12:16:56;4.30;;;3.90;;
40074;SDS011;26529;51.530;11.754;2022-08-14T12:19:23;4.25;;;3.88;;
40074;SDS011;26529;51.530;11.754;2022-08-14T12:21:49;3.90;;;3.60;;
40074;SDS011;26529;51.530;11.754;2022-08-14T12:24:15;4.57;;;4.15;;
40074;SDS011;26529;51.530;11.754;2022-08-14T12:26:40;3.80;;;3.50;;
40074;SDS011;26529;51.530;11.754;2022-08-14T12:29:06;4.07;;;3.70;;
40074;SDS011;26529;51.530;11.754;2022-08-14T12:31:34;4.70;;;4.30;;
40074;SDS011;26529;51.530;11.754;2022-08-14T12:34:01;4.32;;;3.95;;
40074;SDS011;26529;51.530;11.754;2022-08-14T12:36:29;3.83;;;3.42;;
40074;SDS011;26529;51.530;11.754;2022-08-14T12:39:02;4.10;;;3.80;;
40074;SDS011;26529;51.530;11.754;2022-08-14T12:41:29;4.40;;;3.60;;
40074;SDS011;26529;51.530;11.754;2022-08-14T12:44:04;4.10;;;3.80;;
40074;SDS011;26529;51.530;11.754;2022-08-14T12:46:32;4.25;;;3.95;;
40074;SDS011;26529;51.530;11.754;2022-08-14T12:49:07;5.32;;;4.75;;
40074;SDS011;26529;51.530;11.754;2022-08-14T12:51:34;4.18;;;3.88;;
40074;SDS011;26529;51.530;11.754;2022-08-14T12:54:10;3.80;;;3.50;;
40074;SDS011;26529;51.530;11.754;2022-08-14T12:56:41;4.53;;;4.13;;
40074;SDS011;26529;51.530;11.754;2022-08-14T12:59:07;4.72;;;4.22;;
40074;SDS011;26529;51.530;11.754;2022-08-14T13:01:33;4.25;;;3.95;;
40074;SDS011;26529;51.530;11.754;2022-08-14T13:06:33;4.13;;;3.83;;
40074;SDS011;26529;51.530;11.754;2022-08-14T13:08:59;4.30;;;3.90;;
40074;SDS011;26529;51.530;11.754;2022-08-14T13:11:25;4.30;;;3.42;;
40074;SDS011;26529;51.530;11.754;2022-08-14T13:13:57;4.20;;;3.80;;
40074;SDS011;26529;51.530;11.754;2022-08-14T13:16:24;4.32;;;3.92;;
40074;SDS011;26529;51.530;11.754;2022-08-14T13:18:53;4.35;;;3.95;;
40074;SDS011;26529;51.530;11.754;2022-08-14T13:21:25;4.60;;;3.85;;
40074;SDS011;26529;51.530;11.754;2022-08-14T13:23:52;4.38;;;3.97;;
40074;SDS011;26529;51.530;11.754;2022-08-14T13:26:18;4.28;;;3.88;;
40074;SDS011;26529;51.530;11.754;2022-08-14T13:28:48;4.35;;;3.95;;
40074;SDS011;26529;51.530;11.754;2022-08-14T13:31:16;4.22;;;3.92;;
40074;SDS011;26529;51.530;11.754;2022-08-14T13:33:42;4.05;;;3.72;;
40074;SDS011;26529;51.530;11.754;2022-08-14T13:36:09;4.80;;;4.35;;
40074;SDS011;26529;51.530;11.754;2022-08-14T13:38:35;4.38;;;3.97;;
40074;SDS011;26529;51.530;11.754;2022-08-14T13:41:01;3.95;;;3.65;;
40074;SDS011;26529;51.530;11.754;2022-08-14T13:43:28;4.22;;;3.90;;
40074;SDS011;26529;51.530;11.754;2022-08-14T13:45:53;4.22;;;3.92;;
40074;SDS011;26529;51.530;11.754;2022-08-14T13:48:20;3.78;;;3.47;;
40074;SDS011;26529;51.530;11.754;2022-08-14T13:50:47;5.35;;;4.03;;
40074;SDS011;26529;51.530;11.754;2022-08-14T13:53:18;4.72;;;3.97;;
40074;SDS011;26529;51.530;11.754;2022-08-14T13:55:47;3.70;;;3.40;;
40074;SDS011;26529;51.530;11.754;2022-08-14T13:58:14;4.07;;;3.78;;
40074;SDS011;26529;51.530;11.754;2022-08-14T14:00:41;6.18;;;4.28;;
40074;SDS011;26529;51.530;11.754;2022-08-14T14:03:08;3.80;;;3.50;;
40074;SDS011;26529;51.530;11.754;2022-08-14T14:05:36;5.07;;;3.92;;
40074;SDS011;26529;51.530;11.754;2022-08-14T14:08:03;3.95;;;3.50;;
40074;SDS011;26529;51.530;11.754;2022-08-14T14:10:31;5.82;;;3.97;;
40074;SDS011;26529;51.530;11.754;2022-08-14T14:13:00;4.65;;;4.25;;
40074;SDS011;26529;51.530;11.754;2022-08-14T14:15:27;4.25;;;3.95;;
40074;SDS011;26529;51.530;11.754;2022-08-14T14:17:52;4.13;;;3.72;;
40074;SDS011;26529;51.530;11.754;2022-08-14T14:20:19;4.75;;;3.47;;
40074;SDS011;26529;51.530;11.754;2022-08-14T14:22:47;4.07;;;3.50;;
40074;SDS011;26529;51.530;11.754;2022-08-14T14:25:14;4.13;;;3.83;;
40074;SDS011;26529;51.530;11.754;2022-08-14T14:27:42;3.90;;;3.60;;
40074;SDS011;26529;51.530;11.754;2022-08-14T14:30:11;5.00;;;4.18;;
40074;SDS011;26529;51.530;11.754;2022-08-14T14:32:39;4.13;;;3.78;;
40074;SDS011;26529;51.530;11.754;2022-08-14T14:35:08;4.05;;;3.75;;
40074;SDS011;26529;51.530;11.754;2022-08-14T14:37:39;4.03;;;3.63;;
40074;SDS011;26529;51.530;11.754;2022-08-14T14:40:06;4.03;;;3.70;;
40074;SDS011;26529;51.530;11.754;2022-08-14T14:42:32;4.35;;;4.05;;
40074;SDS011;26529;51.530;11.754;2022-08-14T14:45:11;3.50;;;3.22;;
40074;SDS011;26529;51.530;11.754;2022-08-14T14:47:42;3.67;;;3.38;;
40074;SDS011;26529;51.530;11.754;2022-08-14T14:50:10;3.90;;;3.60;;
40074;SDS011;26529;51.530;11.754;2022-08-14T14:52:37;3.30;;;3.10;;
40074;SDS011;26529;51.530;11.754;2022-08-14T14:55:03;4.32;;;3.83;;
40074;SDS011;26529;51.530;11.754;2022-08-14T14:57:30;3.53;;;3.22;;